createdAt,value
2023-05-19T00:03:33.878Z,48.81
2023-05-19T00:06:02.846Z,47.97
2023-05-19T00:08:34.162Z,47.70
2023-05-19T00:11:01.972Z,47.94
2023-05-19T00:13:29.538Z,48.26
2023-05-19T00:15:56.816Z,47.95
2023-05-19T00:18:23.699Z,48.07
2023-05-19T00:20:52.377Z,47.64
2023-05-19T00:23:19.183Z,48.48
2023-05-19T00:25:45.956Z,49.13
2023-05-19T00:28:12.796Z,48.28
2023-05-19T00:30:39.543Z,49.07
2023-05-19T00:33:06.404Z,49.01
2023-05-19T00:35:33.578Z,48.90
2023-05-19T00:38:00.544Z,48.30
2023-05-19T00:40:31.656Z,48.41
2023-05-19T00:42:58.642Z,48.68
2023-05-19T00:45:25.597Z,48.52
2023-05-19T00:47:52.450Z,48.79
2023-05-19T00:50:19.636Z,48.53
2023-05-19T00:52:46.632Z,48.64
2023-05-19T00:55:14.186Z,48.87
2023-05-19T00:57:43.055Z,48.81
2023-05-19T01:00:11.421Z,48.83
2023-05-19T01:02:40.048Z,49.33
2023-05-19T01:05:08.631Z,49.27
2023-05-19T01:07:36.843Z,49.33
2023-05-19T01:10:04.604Z,49.62
2023-05-19T01:12:31.601Z,49.39
2023-05-19T01:14:59.228Z,49.03
2023-05-19T01:17:28.779Z,48.73
2023-05-19T01:20:20.235Z,49.39
2023-05-19T01:22:57.322Z,48.77
2023-05-19T01:26:09.487Z,48.79
2023-05-19T01:29:14.131Z,49.47
2023-05-19T01:31:43.451Z,49.71
2023-05-19T01:34:13.206Z,49.96
2023-05-19T01:36:41.925Z,50.62
2023-05-19T01:39:09.141Z,50.17
2023-05-19T01:41:38.172Z,50.91
2023-05-19T01:44:05.590Z,51.38
2023-05-19T01:46:32.529Z,51.17
2023-05-19T01:48:59.938Z,51.57
2023-05-19T01:51:27.967Z,51.16
2023-05-19T01:53:56.598Z,51.59
2023-05-19T01:56:42.685Z,51.42
2023-05-19T01:59:24.264Z,51.32
2023-05-19T02:01:56.852Z,51.01
2023-05-19T02:04:29.364Z,51.03
2023-05-19T02:07:11.986Z,51.63
2023-05-19T02:10:05.181Z,52.06
2023-05-19T02:12:35.997Z,51.67
2023-05-19T02:15:11.722Z,51.34
2023-05-19T02:17:42.382Z,50.96
2023-05-19T02:20:10.675Z,51.69
2023-05-19T02:22:37.667Z,51.39
2023-05-19T02:25:05.287Z,51.41
2023-05-19T02:27:34.408Z,51.48
2023-05-19T02:30:03.793Z,51.65
2023-05-19T02:32:32.071Z,51.84
2023-05-19T02:34:59.133Z,52.28
2023-05-19T02:37:28.946Z,51.60
2023-05-19T02:39:57.300Z,52.71
2023-05-19T02:42:24.224Z,52.31
2023-05-19T02:44:51.713Z,52.57
2023-05-19T02:47:18.568Z,52.66
2023-05-19T02:49:45.552Z,52.97
2023-05-19T02:52:12.303Z,54.46
2023-05-19T02:54:40.001Z,54.37
2023-05-19T02:57:07.076Z,54.69
2023-05-19T02:59:34.006Z,54.11
2023-05-19T03:02:02.767Z,54.03
2023-05-19T03:04:30.218Z,54.27
2023-05-19T03:07:00.509Z,54.46
2023-05-19T03:09:28.985Z,54.24
2023-05-19T03:11:56.065Z,53.94
2023-05-19T03:14:24.601Z,54.46
2023-05-19T03:16:52.427Z,54.58
2023-05-19T03:19:19.405Z,54.59
2023-05-19T03:21:47.339Z,54.72
2023-05-19T03:24:14.164Z,54.21
2023-05-19T03:26:42.281Z,54.25
2023-05-19T03:29:09.753Z,54.42
2023-05-19T03:31:37.624Z,54.20
2023-05-19T03:34:05.307Z,54.47
2023-05-19T03:36:33.130Z,53.91
2023-05-19T03:39:00.857Z,54.24
2023-05-19T03:41:28.015Z,53.97
2023-05-19T03:43:56.956Z,53.43
2023-05-19T03:46:24.689Z,53.57
2023-05-19T03:48:52.136Z,53.38
2023-05-19T03:51:30.161Z,54.01
2023-05-19T03:54:04.891Z,53.82
2023-05-19T03:56:34.448Z,54.38
2023-05-19T03:59:02.098Z,54.55
2023-05-19T04:01:29.020Z,55.29
2023-05-19T04:03:57.779Z,54.59
2023-05-19T04:06:24.803Z,54.74
2023-05-19T04:08:51.691Z,54.59
2023-05-19T04:11:20.132Z,54.00
2023-05-19T04:13:47.033Z,53.58
2023-05-19T04:16:14.450Z,53.91
2023-05-19T04:18:42.580Z,53.40
2023-05-19T04:21:12.299Z,52.99
2023-05-19T04:23:39.299Z,53.13
2023-05-19T04:26:06.937Z,53.16
2023-05-19T04:28:36.765Z,53.07
2023-05-19T04:31:04.047Z,53.56
2023-05-19T04:33:31.095Z,53.07
2023-05-19T04:36:00.082Z,53.21
2023-05-19T04:38:30.057Z,53.00
2023-05-19T04:41:00.605Z,52.79
2023-05-19T04:43:28.404Z,53.06
2023-05-19T04:45:55.905Z,53.14
2023-05-19T04:48:23.149Z,53.01
2023-05-19T04:50:51.977Z,53.60
2023-05-19T04:53:19.360Z,52.96
2023-05-19T04:55:46.103Z,53.35
2023-05-19T04:58:13.635Z,53.36
2023-05-19T05:00:40.537Z,53.02
2023-05-19T05:03:09.042Z,52.67
2023-05-19T05:05:36.408Z,52.19
2023-05-19T05:08:03.537Z,52.51
2023-05-19T05:10:35.733Z,52.14
2023-05-19T05:13:04.248Z,51.61
2023-05-19T05:15:31.979Z,51.64
2023-05-19T05:18:01.508Z,51.66
2023-05-19T05:20:28.867Z,52.38
2023-05-19T05:22:58.080Z,52.41
2023-05-19T05:25:26.293Z,52.35
2023-05-19T05:27:53.319Z,52.58
2023-05-19T05:30:20.351Z,52.84
2023-05-19T05:32:47.451Z,52.85
2023-05-19T05:35:38.744Z,52.28
2023-05-19T05:38:08.274Z,51.95
2023-05-19T05:40:37.115Z,51.83
2023-05-19T05:43:05.818Z,51.96
2023-05-19T05:45:37.027Z,51.79
2023-05-19T05:48:04.624Z,51.51
2023-05-19T05:50:32.136Z,51.25
2023-05-19T05:53:01.489Z,51.40
2023-05-19T05:55:28.719Z,50.78
2023-05-19T05:57:56.975Z,50.96
2023-05-19T06:00:23.969Z,50.94
2023-05-19T06:02:53.563Z,50.00
2023-05-19T06:05:20.907Z,48.93
2023-05-19T06:07:48.696Z,49.52
2023-05-19T06:10:23.572Z,49.35
2023-05-19T06:12:50.416Z,49.20
2023-05-19T06:15:17.431Z,49.79
2023-05-19T06:17:56.847Z,49.32
2023-05-19T06:20:23.955Z,47.74
2023-05-19T06:22:52.637Z,46.78
2023-05-19T06:25:21.417Z,47.29
2023-05-19T06:27:48.353Z,46.88
2023-05-19T06:30:16.436Z,45.89
2023-05-19T06:33:04.084Z,46.31
2023-05-19T06:35:31.691Z,46.13
2023-05-19T06:37:58.759Z,46.89
2023-05-19T06:40:25.618Z,45.85
2023-05-19T06:42:53.778Z,45.76
2023-05-19T06:45:52.842Z,45.89
2023-05-19T06:48:19.849Z,45.50
2023-05-19T06:50:47.849Z,45.61
2023-05-19T06:53:17.330Z,44.91
2023-05-19T06:55:57.427Z,45.90
2023-05-19T06:58:27.892Z,45.55
2023-05-19T07:00:56.456Z,44.41
2023-05-19T07:03:27.650Z,43.99
2023-05-19T07:05:55.582Z,43.87
2023-05-19T07:08:23.060Z,44.17
2023-05-19T07:10:49.940Z,44.68
2023-05-19T07:13:17.796Z,44.56
2023-05-19T07:15:45.140Z,43.52
2023-05-19T07:18:14.051Z,43.19
2023-05-19T07:20:41.821Z,42.38
2023-05-19T07:23:08.746Z,41.71
2023-05-19T07:25:35.973Z,41.30
2023-05-19T07:28:02.856Z,41.64
2023-05-19T07:30:30.075Z,41.79
2023-05-19T07:32:57.318Z,40.78
2023-05-19T07:35:24.642Z,40.53
2023-05-19T07:37:52.459Z,40.27
2023-05-19T07:40:19.481Z,40.61
2023-05-19T07:42:46.408Z,39.68
2023-05-19T07:45:13.272Z,38.63
2023-05-19T07:47:40.075Z,39.05
2023-05-19T07:50:07.668Z,39.46
2023-05-19T07:52:34.447Z,39.16
2023-05-19T07:55:01.327Z,39.54
2023-05-19T07:57:28.059Z,38.82
2023-05-19T07:59:54.927Z,38.95
2023-05-19T08:02:21.824Z,39.11
2023-05-19T08:04:49.640Z,39.42
2023-05-19T08:07:16.796Z,39.41
2023-05-19T08:09:43.653Z,38.29
2023-05-19T08:12:10.530Z,38.49
2023-05-19T08:14:37.499Z,37.96
2023-05-19T08:17:08.471Z,38.70
2023-05-19T08:19:35.980Z,38.44
2023-05-19T08:22:08.507Z,37.86
2023-05-19T08:24:44.312Z,37.32
2023-05-19T08:27:12.575Z,37.97
2023-05-19T08:29:39.953Z,36.90
2023-05-19T08:32:07.337Z,37.17
2023-05-19T08:34:34.386Z,38.01
2023-05-19T08:37:01.870Z,38.39
2023-05-19T08:39:30.496Z,37.97
2023-05-19T08:41:59.460Z,37.68
2023-05-19T08:44:42.182Z,37.61
2023-05-19T08:47:16.081Z,37.12
2023-05-19T08:49:48.159Z,37.11
2023-05-19T08:52:52.553Z,36.60
2023-05-19T08:55:46.362Z,36.89
2023-05-19T08:58:20.858Z,36.32
2023-05-19T09:00:48.122Z,36.53
2023-05-19T09:03:23.227Z,37.02
2023-05-19T09:05:51.439Z,36.73
2023-05-19T09:08:18.511Z,37.03
2023-05-19T09:10:45.617Z,36.44
2023-05-19T09:13:12.541Z,36.65
2023-05-19T09:15:41.368Z,35.39
2023-05-19T09:18:10.549Z,35.67
2023-05-19T09:20:39.664Z,37.00
2023-05-19T09:23:06.492Z,36.00
2023-05-19T09:25:34.075Z,35.92
2023-05-19T09:28:01.486Z,35.84
2023-05-19T09:30:28.314Z,35.65
2023-05-19T09:32:55.156Z,35.74
2023-05-19T09:35:22.144Z,35.74
2023-05-19T09:37:48.938Z,35.11
2023-05-19T09:40:16.195Z,35.80
2023-05-19T09:42:44.413Z,37.23
2023-05-19T09:45:12.087Z,36.07
2023-05-19T09:47:42.009Z,35.38
2023-05-19T09:50:14.616Z,35.61
2023-05-19T09:52:45.764Z,36.13
2023-05-19T09:55:14.589Z,36.07
2023-05-19T09:57:42.058Z,35.98
2023-05-19T10:00:13.959Z,36.39
2023-05-19T10:02:44.308Z,36.11
2023-05-19T10:05:18.925Z,36.53
2023-05-19T10:07:55.785Z,36.23
2023-05-19T10:10:23.717Z,35.49
2023-05-19T10:12:50.981Z,35.24
2023-05-19T10:15:22.207Z,34.46
2023-05-19T10:17:59.683Z,34.28
2023-05-19T10:20:31.927Z,33.07
2023-05-19T10:23:00.582Z,33.93
2023-05-19T10:25:34.547Z,33.57
2023-05-19T10:28:10.881Z,33.54
2023-05-19T10:30:41.822Z,33.63
2023-05-19T10:33:16.997Z,33.76
2023-05-19T10:35:54.322Z,33.44
2023-05-19T10:38:45.698Z,32.99
2023-05-19T10:41:27.020Z,33.40
2023-05-19T10:44:21.771Z,33.30
2023-05-19T10:46:49.432Z,34.29
2023-05-19T10:49:26.817Z,33.44
2023-05-19T10:51:59.531Z,33.87
2023-05-19T10:54:41.265Z,32.79
2023-05-19T10:57:08.752Z,33.58
2023-05-19T10:59:40.035Z,33.59
2023-05-19T11:02:08.691Z,33.86
2023-05-19T11:04:50.356Z,34.88
2023-05-19T11:07:20.550Z,34.14
2023-05-19T11:09:55.404Z,33.18
2023-05-19T11:12:25.379Z,34.47
2023-05-19T11:14:53.974Z,35.26
2023-05-19T11:17:22.378Z,35.45
2023-05-19T11:19:54.829Z,34.93
2023-05-19T11:22:27.388Z,35.71
2023-05-19T11:24:57.856Z,34.85
2023-05-19T11:27:28.449Z,34.78
2023-05-19T11:29:57.380Z,34.79
2023-05-19T11:32:27.614Z,35.38
2023-05-19T11:34:59.262Z,35.74
2023-05-19T11:37:32.582Z,35.82
2023-05-19T11:40:02.767Z,35.35
2023-05-19T11:42:31.540Z,34.33
2023-05-19T11:44:58.531Z,34.04
2023-05-19T11:47:25.996Z,34.64
2023-05-19T11:49:55.061Z,34.81
2023-05-19T11:52:23.464Z,34.56
2023-05-19T11:54:51.395Z,35.27
2023-05-19T11:57:19.289Z,34.87
2023-05-19T11:59:48.344Z,35.58
2023-05-19T12:02:32.880Z,36.02
2023-05-19T12:05:00.588Z,37.50
2023-05-19T12:07:27.770Z,36.88
2023-05-19T12:10:01.988Z,37.37
2023-05-19T12:12:32.816Z,37.96
2023-05-19T12:15:04.400Z,38.31
2023-05-19T12:17:36.208Z,38.73
2023-05-19T12:20:05.773Z,38.79
2023-05-19T12:22:32.821Z,38.78
2023-05-19T12:25:09.236Z,39.28
2023-05-19T12:27:42.100Z,39.17
2023-05-19T12:30:13.922Z,39.63
2023-05-19T12:32:53.548Z,39.47
2023-05-19T12:35:20.708Z,40.60
2023-05-19T12:37:55.548Z,40.07
2023-05-19T12:40:23.521Z,39.82
2023-05-19T12:42:55.947Z,39.40
2023-05-19T12:45:25.941Z,39.23
2023-05-19T12:47:53.352Z,40.07
2023-05-19T12:50:20.622Z,39.54
2023-05-19T12:52:51.145Z,38.74
2023-05-19T12:55:29.684Z,38.48
2023-05-19T12:58:06.263Z,38.10
2023-05-19T13:00:36.106Z,38.54
2023-05-19T13:03:08.792Z,38.06
2023-05-19T13:05:51.278Z,38.66
2023-05-19T13:08:24.889Z,38.08
2023-05-19T13:10:52.234Z,38.25
2023-05-19T13:13:27.512Z,39.06
2023-05-19T13:16:01.222Z,38.80
2023-05-19T13:18:35.185Z,38.91
2023-05-19T13:21:05.473Z,39.05
2023-05-19T13:23:32.783Z,39.19
2023-05-19T13:26:00.498Z,38.81
2023-05-19T13:28:27.769Z,38.70
2023-05-19T13:30:55.524Z,38.95
2023-05-19T13:33:23.043Z,39.57
2023-05-19T13:35:52.760Z,39.26
2023-05-19T13:38:19.807Z,38.99
2023-05-19T13:40:46.812Z,40.40
2023-05-19T13:43:16.586Z,39.35
2023-05-19T13:45:53.373Z,40.37
2023-05-19T13:48:20.772Z,40.98
2023-05-19T13:50:47.763Z,40.89
2023-05-19T13:53:14.953Z,41.14
2023-05-19T13:55:42.035Z,41.60
2023-05-19T13:58:11.335Z,40.48
2023-05-19T14:00:38.511Z,40.85
2023-05-19T14:03:07.415Z,41.17
2023-05-19T14:05:40.282Z,40.96
2023-05-19T14:08:11.597Z,40.16
2023-05-19T14:10:42.460Z,40.84
2023-05-19T14:13:31.503Z,41.14
2023-05-19T14:15:58.673Z,40.92
2023-05-19T14:18:28.989Z,40.39
2023-05-19T14:20:56.917Z,41.01
2023-05-19T14:23:23.971Z,41.93
2023-05-19T14:25:56.676Z,42.00
2023-05-19T14:28:23.765Z,41.60
2023-05-19T14:30:51.941Z,41.96
2023-05-19T14:33:19.610Z,40.49
2023-05-19T14:35:53.504Z,41.35
2023-05-19T14:38:29.375Z,41.29
2023-05-19T14:41:00.182Z,41.83
2023-05-19T14:43:29.325Z,42.41
2023-05-19T14:46:00.651Z,41.56
2023-05-19T14:48:31.008Z,42.16
2023-05-19T14:51:04.425Z,41.83
2023-05-19T14:53:45.437Z,42.21
2023-05-19T14:56:21.270Z,42.46
2023-05-19T14:59:00.341Z,42.00
2023-05-19T15:01:28.369Z,42.88
2023-05-19T15:04:00.741Z,42.82
2023-05-19T15:06:28.051Z,42.29
2023-05-19T15:08:55.587Z,42.47
2023-05-19T15:11:35.144Z,41.91
2023-05-19T15:14:05.690Z,42.66
2023-05-19T15:16:43.575Z,43.22
2023-05-19T15:19:14.843Z,42.83
2023-05-19T15:21:42.643Z,43.00
2023-05-19T15:24:09.649Z,42.67
2023-05-19T15:26:36.949Z,43.14
2023-05-19T15:29:04.322Z,43.04
2023-05-19T15:31:35.726Z,43.50
2023-05-19T15:34:05.169Z,43.62
2023-05-19T15:36:44.372Z,42.86
2023-05-19T15:39:17.030Z,42.53
2023-05-19T15:41:44.716Z,42.13
2023-05-19T15:44:14.421Z,41.71
2023-05-19T15:46:42.675Z,42.02
2023-05-19T15:49:09.608Z,42.25
2023-05-19T15:51:39.788Z,42.74
2023-05-19T15:54:07.206Z,42.37
2023-05-19T15:56:34.694Z,43.09
2023-05-19T15:59:01.827Z,42.52
2023-05-19T16:01:29.460Z,42.55
2023-05-19T16:03:56.640Z,42.72
2023-05-19T16:06:24.835Z,43.21
2023-05-19T16:08:52.463Z,43.56
2023-05-19T16:11:20.677Z,43.56
2023-05-19T16:13:47.733Z,44.33
2023-05-19T16:16:18.351Z,44.16
2023-05-19T16:18:47.628Z,43.50
2023-05-19T16:21:14.760Z,44.11
2023-05-19T16:23:41.834Z,44.43
2023-05-19T16:26:09.006Z,44.87
2023-05-19T16:28:35.990Z,44.92
2023-05-19T16:31:02.776Z,45.05
2023-05-19T16:33:30.167Z,45.16
2023-05-19T16:35:58.790Z,45.83
2023-05-19T16:38:26.737Z,46.55
2023-05-19T16:40:53.913Z,47.14
2023-05-19T16:43:20.758Z,46.06
2023-05-19T16:45:47.717Z,46.71
2023-05-19T16:48:14.653Z,47.13
2023-05-19T16:50:41.526Z,47.29
2023-05-19T16:53:08.449Z,47.08
2023-05-19T16:55:38.710Z,47.28
2023-05-19T16:58:06.930Z,47.80
2023-05-19T17:00:34.148Z,48.13
2023-05-19T17:03:01.270Z,48.57
2023-05-19T17:05:28.208Z,48.48
2023-05-19T17:07:55.108Z,48.28
2023-05-19T17:10:31.526Z,48.41
2023-05-19T17:12:58.949Z,48.61
2023-05-19T17:15:26.370Z,49.53
2023-05-19T17:17:54.015Z,48.64
2023-05-19T17:20:22.523Z,47.92
2023-05-19T17:22:55.642Z,48.68
2023-05-19T17:25:23.639Z,49.45
2023-05-19T17:27:52.799Z,49.83
2023-05-19T17:30:19.891Z,49.98
2023-05-19T17:32:47.718Z,50.02
2023-05-19T17:35:14.670Z,50.57
2023-05-19T17:37:42.561Z,50.73
2023-05-19T17:40:12.301Z,50.95
2023-05-19T17:42:39.382Z,51.89
2023-05-19T17:45:07.704Z,51.18
2023-05-19T17:47:38.600Z,51.54
2023-05-19T17:50:07.222Z,51.65
2023-05-19T17:52:34.782Z,51.43
2023-05-19T17:55:02.467Z,51.52
2023-05-19T17:57:33.784Z,51.27
2023-05-19T18:00:04.147Z,50.53
2023-05-19T18:02:33.703Z,50.01
2023-05-19T18:05:03.836Z,50.27
2023-05-19T18:07:33.018Z,50.37
2023-05-19T18:10:01.738Z,50.91
2023-05-19T18:12:28.649Z,51.30
2023-05-19T18:14:55.464Z,51.71
2023-05-19T18:17:23.590Z,52.07
2023-05-19T18:19:52.298Z,52.11
2023-05-19T18:22:19.697Z,51.80
2023-05-19T18:24:47.484Z,51.06
2023-05-19T18:27:14.381Z,50.87
2023-05-19T18:29:42.306Z,51.57
2023-05-19T18:32:09.620Z,51.72
2023-05-19T18:34:36.493Z,52.07
2023-05-19T18:37:03.553Z,51.61
2023-05-19T18:39:30.482Z,52.15
2023-05-19T18:41:57.746Z,52.22
2023-05-19T18:44:26.014Z,51.87
2023-05-19T18:46:53.673Z,52.58
2023-05-19T18:49:21.163Z,52.68
2023-05-19T18:51:51.676Z,52.82
2023-05-19T18:54:22.742Z,52.84
2023-05-19T18:56:51.271Z,53.93
2023-05-19T18:59:18.332Z,54.29
2023-05-19T19:01:46.148Z,53.88
2023-05-19T19:04:14.843Z,53.57
2023-05-19T19:06:43.958Z,54.54
2023-05-19T19:09:12.982Z,54.25
2023-05-19T19:11:40.550Z,54.73
2023-05-19T19:14:07.702Z,55.00
2023-05-19T19:16:34.725Z,55.14
2023-05-19T19:19:01.743Z,54.85
2023-05-19T19:21:29.900Z,54.48
2023-05-19T19:23:58.042Z,54.51
2023-05-19T19:26:28.834Z,53.54
2023-05-19T19:28:56.502Z,53.84
2023-05-19T19:31:26.122Z,54.05
2023-05-19T19:33:53.511Z,54.63
2023-05-19T19:36:22.889Z,54.24
2023-05-19T19:38:50.204Z,54.71
2023-05-19T19:41:17.145Z,55.00
2023-05-19T19:43:44.232Z,55.09
2023-05-19T19:46:11.365Z,55.50
2023-05-19T19:48:40.450Z,55.80
2023-05-19T19:51:08.071Z,55.50
2023-05-19T19:53:35.068Z,55.38
2023-05-19T19:56:03.827Z,56.21
2023-05-19T19:58:33.988Z,55.96
2023-05-19T20:01:04.350Z,57.85
2023-05-19T20:03:34.595Z,57.04
2023-05-19T20:06:03.960Z,55.91
2023-05-19T20:08:31.543Z,55.97
2023-05-19T20:11:03.136Z,55.75
2023-05-19T20:13:32.806Z,55.74
2023-05-19T20:16:00.272Z,56.75
2023-05-19T20:18:34.738Z,56.39
2023-05-19T20:21:02.899Z,55.36
2023-05-19T20:23:29.720Z,55.62
2023-05-19T20:26:10.839Z,56.88
2023-05-19T20:28:38.674Z,55.93
2023-05-19T20:31:06.593Z,56.36
2023-05-19T20:33:33.699Z,55.84
2023-05-19T20:36:02.362Z,56.84
2023-05-19T20:38:29.556Z,57.57
2023-05-19T20:40:56.761Z,58.17
2023-05-19T20:43:23.762Z,58.69
2023-05-19T20:45:51.514Z,58.34
2023-05-19T20:48:20.174Z,58.74
2023-05-19T20:50:47.046Z,58.78
2023-05-19T20:53:13.999Z,58.84
2023-05-19T20:55:41.318Z,58.67
2023-05-19T20:58:08.296Z,59.06
2023-05-19T21:00:35.644Z,59.50
2023-05-19T21:03:07.577Z,59.43
2023-05-19T21:05:35.775Z,59.48
2023-05-19T21:08:03.534Z,60.04
2023-05-19T21:10:30.526Z,59.71
2023-05-19T21:12:59.847Z,59.21
2023-05-19T21:15:27.294Z,60.40
2023-05-19T21:17:55.996Z,60.96
2023-05-19T21:20:24.028Z,61.00
2023-05-19T21:22:52.908Z,61.26
2023-05-19T21:25:20.056Z,61.03
2023-05-19T21:27:47.530Z,60.82
2023-05-19T21:30:14.714Z,60.91
2023-05-19T21:32:44.035Z,61.62
2023-05-19T21:35:13.054Z,60.64
2023-05-19T21:37:43.300Z,61.42
2023-05-19T21:40:10.859Z,61.58
2023-05-19T21:42:38.101Z,61.92
2023-05-19T21:45:05.639Z,60.77
2023-05-19T21:47:33.266Z,61.39
2023-05-19T21:50:04.287Z,61.54
2023-05-19T21:52:32.244Z,61.22
2023-05-19T21:54:59.334Z,61.76
2023-05-19T21:57:26.552Z,61.20
2023-05-19T21:59:53.624Z,61.12
2023-05-19T22:02:21.107Z,61.71
2023-05-19T22:04:48.097Z,61.00
2023-05-19T22:07:14.876Z,62.18
2023-05-19T22:09:41.685Z,61.79
2023-05-19T22:12:12.786Z,61.21
2023-05-19T22:14:40.043Z,60.90
2023-05-19T22:17:06.805Z,60.96
2023-05-19T22:19:33.698Z,61.12
2023-05-19T22:22:12.666Z,59.92
2023-05-19T22:24:41.091Z,59.89
2023-05-19T22:27:08.376Z,60.61
2023-05-19T22:29:38.637Z,61.75
2023-05-19T22:32:11.928Z,61.71
2023-05-19T22:34:39.540Z,61.88
2023-05-19T22:37:06.834Z,61.78
2023-05-19T22:39:34.688Z,61.14
2023-05-19T22:42:01.466Z,61.06
2023-05-19T22:44:28.409Z,60.67
2023-05-19T22:46:55.201Z,60.86
2023-05-19T22:49:26.500Z,62.52
2023-05-19T22:51:53.425Z,62.21
2023-05-19T22:54:20.310Z,62.02
2023-05-19T22:56:49.057Z,62.08
2023-05-19T22:59:18.027Z,62.45
2023-05-19T23:01:46.736Z,61.81
2023-05-19T23:04:14.053Z,62.78
2023-05-19T23:06:41.658Z,62.50
2023-05-19T23:09:08.382Z,61.94
2023-05-19T23:11:36.025Z,62.39
2023-05-19T23:14:02.963Z,61.25
2023-05-19T23:16:29.824Z,61.28
2023-05-19T23:18:56.781Z,62.19
2023-05-19T23:21:23.761Z,61.12
2023-05-19T23:23:50.645Z,61.38
2023-05-19T23:26:17.748Z,61.70
2023-05-19T23:28:44.678Z,62.97
2023-05-19T23:31:11.740Z,62.08
2023-05-19T23:33:38.979Z,62.62
2023-05-19T23:36:07.836Z,61.96
2023-05-19T23:38:35.288Z,62.14
2023-05-19T23:41:02.615Z,62.10
2023-05-19T23:43:29.847Z,62.84
2023-05-19T23:45:56.971Z,62.62
2023-05-19T23:48:24.171Z,62.33
2023-05-19T23:50:50.874Z,62.04
2023-05-19T23:53:17.842Z,62.06
2023-05-19T23:55:45.202Z,62.36
2023-05-19T23:58:12.018Z,62.92
